Time;durP1;ratioP1;P1;durP2;ratioP2;P2;SDS_P1;SDS_P2;PMS_P1;PMS_P2;Temp;Humidity;BMP_temperature;BMP_pressure;BME280_temperature;BME280_humidity;BME280_pressure;Samples;Min_cycle;Max_cycle;Signal;HPM_P1;HPM_P2
2023/08/25 00:00:24;;;;;;;17.65;12.43;;;;;;;;;;5052756;28;20040;-70
2023/08/25 00:02:52;;;;;;;16.23;12.90;;;;;;;;;;5035209;28;20047;-71
2023/08/25 00:05:19;;;;;;;13.45;12.15;;;;;;;;;;5035072;28;20491;-70
2023/08/25 00:07:47;;;;;;;16.05;12.68;;;;;;;;;;5052915;28;20116;-70
2023/08/25 00:10:14;;;;;;;14.95;12.45;;;;;;;;;;5052615;28;20060;-71
2023/08/25 00:12:42;;;;;;;14.48;12.65;;;;;;;;;;5052682;28;20506;-70
2023/08/25 00:15:10;;;;;;;14.18;12.02;;;;;;;;;;5052544;28;20067;-71
2023/08/25 00:17:37;;;;;;;15.27;12.52;;;;;;;;;;5052713;28;20459;-71
2023/08/25 00:20:08;;;;;;;15.15;12.55;;;;;;;;;;5053044;28;20430;-70
2023/08/25 00:22:36;;;;;;;18.30;13.23;;;;;;;;;;5052471;28;20120;-71
2023/08/25 00:25:03;;;;;;;15.27;13.38;;;;;;;;;;5052693;28;20036;-71
2023/08/25 00:27:31;;;;;;;18.80;14.48;;;;;;;;;;5052325;28;20043;-71
2023/08/25 00:29:58;;;;;;;19.33;13.38;;;;;;;;;;5034557;28;20502;-71
2023/08/25 00:32:26;;;;;;;16.23;14.20;;;;;;;;;;5052407;28;20083;-71
2023/08/25 00:34:54;;;;;;;19.45;14.07;;;;;;;;;;5034462;28;20109;-71
2023/08/25 00:37:24;;;;;;;16.98;14.05;;;;;;;;;;5034336;28;20124;-71
2023/08/25 00:39:52;;;;;;;15.82;14.15;;;;;;;;;;5034620;28;20088;-71
2023/08/25 00:42:19;;;;;;;17.25;14.23;;;;;;;;;;5034681;28;20056;-71
2023/08/25 00:44:46;;;;;;;16.70;14.45;;;;;;;;;;5052266;28;20060;-71
2023/08/25 00:47:14;;;;;;;17.83;14.43;;;;;;;;;;5052242;28;20390;-71
2023/08/25 00:49:42;;;;;;;16.48;14.65;;;;;;;;;;5034311;28;20048;-71
2023/08/25 00:52:11;;;;;;;19.20;14.80;;;;;;;;;;5034272;28;20554;-71
2023/08/25 00:54:40;;;;;;;19.33;15.13;;;;;;;;;;5034206;28;20041;-71
2023/08/25 00:57:07;;;;;;;17.27;14.65;;;;;;;;;;5034265;28;20056;-71
2023/08/25 00:59:37;;;;;;;20.42;14.65;;;;;;;;;;5052057;28;20483;-71
2023/08/25 01:02:04;;;;;;;17.80;15.00;;;;;;;;;;5036542;28;20056;-71
2023/08/25 01:04:34;;;;;;;15.70;14.07;;;;;;;;;;5056341;28;20481;-71
2023/08/25 01:07:01;;;;;;;19.98;14.95;;;;;;;;;;5038164;28;20056;-71
2023/08/25 01:09:29;;;;;;;16.95;15.20;;;;;;;;;;5038051;28;20057;-71
2023/08/25 01:12:04;;;;;;;16.77;15.05;;;;;;;;;;5037842;28;20044;-72
2023/08/25 01:14:31;;;;;;;19.77;15.50;;;;;;;;;;5038012;28;20167;-71
2023/08/25 01:17:05;;;;;;;18.98;15.05;;;;;;;;;;5038109;28;20037;-71
2023/08/25 01:19:55;;;;;;;17.73;14.20;;;;;;;;;;5037963;28;20517;-71
2023/08/25 01:22:25;;;;;;;19.38;15.45;;;;;;;;;;5037845;28;20041;-71
2023/08/25 01:24:55;;;;;;;17.40;15.07;;;;;;;;;;5021554;28;20087;-71
2023/08/25 01:27:22;;;;;;;17.90;15.10;;;;;;;;;;5037967;28;20052;-71
2023/08/25 01:29:50;;;;;;;18.23;16.27;;;;;;;;;;5037838;28;20139;-71
2023/08/25 01:32:19;;;;;;;17.95;16.10;;;;;;;;;;5037720;28;20123;-71
2023/08/25 01:34:48;;;;;;;18.05;15.45;;;;;;;;;;5037721;28;20040;-71
2023/08/25 01:37:22;;;;;;;19.95;16.15;;;;;;;;;;5037640;28;20131;-71
2023/08/25 01:39:50;;;;;;;;;;;;;;;;;;5038043;28;20079;-71
2023/08/25 01:42:18;;;;;;;17.50;15.75;;;;;;;;;;5055454;28;20370;-71
2023/08/25 01:44:47;;;;;;;18.13;15.93;;;;;;;;;;5037463;28;20454;-71
2023/08/25 01:47:17;;;;;;;19.52;17.23;;;;;;;;;;5037386;28;20482;-71
2023/08/25 01:49:46;;;;;;;20.45;17.08;;;;;;;;;;5037261;28;20076;-71
2023/08/25 01:52:14;;;;;;;19.77;16.60;;;;;;;;;;5037235;28;20060;-71
2023/08/25 01:54:43;;;;;;;20.33;16.70;;;;;;;;;;5037350;28;20040;-71
2023/08/25 01:57:10;;;;;;;19.88;16.55;;;;;;;;;;5037152;28;20052;-71
2023/08/25 01:59:38;;;;;;;18.92;16.73;;;;;;;;;;5037240;28;20041;-71
2023/08/25 02:02:05;;;;;;;19.65;17.13;;;;;;;;;;5033569;28;20049;-72
2023/08/25 02:04:33;;;;;;;19.55;17.38;;;;;;;;;;5035066;28;20048;-71
2023/08/25 02:07:00;;;;;;;22.23;16.98;;;;;;;;;;5033807;28;20140;-71
2023/08/25 02:09:28;;;;;;;18.30;16.40;;;;;;;;;;5033556;28;20037;-71
2023/08/25 02:11:55;;;;;;;18.13;16.20;;;;;;;;;;5050007;28;20099;-71
2023/08/25 02:14:23;;;;;;;20.17;17.20;;;;;;;;;;5034619;28;20172;-71
2023/08/25 02:16:50;;;;;;;17.88;16.08;;;;;;;;;;5033580;28;20053;-71
2023/08/25 02:19:18;;;;;;;18.75;16.85;;;;;;;;;;5034817;28;20042;-71
2023/08/25 02:21:46;;;;;;;21.05;17.73;;;;;;;;;;5033396;28;20045;-71
2023/08/25 02:24:13;;;;;;;18.65;16.60;;;;;;;;;;5033614;28;20128;-71
2023/08/25 02:26:42;;;;;;;22.00;17.20;;;;;;;;;;5033364;28;20044;-71
2023/08/25 02:29:10;;;;;;;20.13;17.42;;;;;;;;;;5033144;28;20085;-71
2023/08/25 02:31:38;;;;;;;22.23;18.15;;;;;;;;;;5033283;28;20050;-71
2023/08/25 02:34:06;;;;;;;20.08;17.98;;;;;;;;;;5033259;28;20084;-71
2023/08/25 02:36:33;;;;;;;19.65;17.58;;;;;;;;;;5033208;28;20103;-71
2023/08/25 02:39:01;;;;;;;24.80;18.40;;;;;;;;;;5033107;28;20069;-71
2023/08/25 02:41:28;;;;;;;21.77;18.25;;;;;;;;;;5049708;28;20107;-71
2023/08/25 02:43:56;;;;;;;21.95;18.35;;;;;;;;;;5034297;28;20042;-71
2023/08/25 02:46:23;;;;;;;20.23;17.95;;;;;;;;;;5033049;28;20072;-71
2023/08/25 02:48:51;;;;;;;21.58;18.75;;;;;;;;;;5032814;28;20058;-71
2023/08/25 02:51:18;;;;;;;20.88;18.20;;;;;;;;;;5033043;28;20491;-71
2023/08/25 02:53:46;;;;;;;21.05;18.15;;;;;;;;;;5032819;28;20111;-71
2023/08/25 02:56:13;;;;;;;22.27;17.80;;;;;;;;;;5032832;28;20041;-71
2023/08/25 02:58:41;;;;;;;20.70;17.00;;;;;;;;;;5032904;28;20120;-71
2023/08/25 03:01:12;;;;;;;21.42;17.95;;;;;;;;;;5032608;28;20595;-71
2023/08/25 03:03:39;;;;;;;19.65;17.35;;;;;;;;;;5032700;28;20124;-71
2023/08/25 03:06:07;;;;;;;21.63;17.20;;;;;;;;;;5032614;28;20042;-69
2023/08/25 03:08:35;;;;;;;18.88;16.88;;;;;;;;;;5032523;28;20053;-71
2023/08/25 03:11:03;;;;;;;19.02;17.05;;;;;;;;;;5032574;28;20056;-69
2023/08/25 03:13:32;;;;;;;23.83;17.75;;;;;;;;;;5032510;28;20136;-70
2023/08/25 03:16:02;;;;;;;20.42;18.10;;;;;;;;;;5032408;28;20053;-69
2023/08/25 03:18:31;;;;;;;19.55;17.25;;;;;;;;;;5032293;28;20107;-70
2023/08/25 03:20:59;;;;;;;19.85;17.85;;;;;;;;;;5032343;28;20124;-70
2023/08/25 03:23:27;;;;;;;22.73;18.05;;;;;;;;;;5031968;28;20049;-69
2023/08/25 03:25:55;;;;;;;20.23;18.10;;;;;;;;;;5032505;28;20474;-70
2023/08/25 03:28:22;;;;;;;22.20;18.00;;;;;;;;;;5032373;28;20522;-69
2023/08/25 03:30:51;;;;;;;20.38;17.23;;;;;;;;;;5032114;28;20038;-70
2023/08/25 03:33:22;;;;;;;20.20;17.08;;;;;;;;;;5032367;28;20046;-69
2023/08/25 03:35:50;;;;;;;20.85;17.63;;;;;;;;;;5032145;28;20055;-70
2023/08/25 03:38:19;;;;;;;24.25;17.65;;;;;;;;;;5031936;28;20447;-70
2023/08/25 03:40:46;;;;;;;22.58;17.88;;;;;;;;;;5032028;28;20053;-69
2023/08/25 03:43:14;;;;;;;23.60;17.75;;;;;;;;;;5031816;28;20037;-70
2023/08/25 03:45:41;;;;;;;20.98;18.05;;;;;;;;;;5031701;28;20571;-70
2023/08/25 03:48:11;;;;;;;21.77;17.58;;;;;;;;;;5031688;28;20128;-70
2023/08/25 03:50:39;;;;;;;21.15;17.90;;;;;;;;;;5033007;28;20434;-70
2023/08/25 03:53:06;;;;;;;22.08;17.35;;;;;;;;;;5046892;28;20763;-70
2023/08/25 03:55:34;;;;;;;20.13;17.42;;;;;;;;;;5051725;28;20049;-70
2023/08/25 03:58:02;;;;;;;22.38;17.40;;;;;;;;;;5052924;28;20475;-70
2023/08/25 04:00:29;;;;;;;19.45;16.85;;;;;;;;;;5052446;28;20482;-70
2023/08/25 04:02:57;;;;;;;21.83;17.70;;;;;;;;;;5054832;28;20056;-71
2023/08/25 04:05:24;;;;;;;25.58;18.15;;;;;;;;;;5054807;28;20051;-71
2023/08/25 04:07:53;;;;;;;20.45;18.27;;;;;;;;;;5072586;28;20514;-71
2023/08/25 04:10:21;;;;;;;23.60;18.45;;;;;;;;;;5054608;28;20107;-70
2023/08/25 04:12:49;;;;;;;19.77;17.67;;;;;;;;;;5072682;28;20042;-70
2023/08/25 04:15:16;;;;;;;22.25;18.40;;;;;;;;;;5072714;28;20044;-71
2023/08/25 04:17:45;;;;;;;22.52;18.45;;;;;;;;;;5054844;28;20071;-70
2023/08/25 04:20:14;;;;;;;21.58;17.88;;;;;;;;;;5054627;28;20140;-69
2023/08/25 04:22:42;;;;;;;21.00;18.65;;;;;;;;;;5054602;28;20040;-70
2023/08/25 04:25:09;;;;;;;23.30;18.00;;;;;;;;;;5054707;28;20110;-70
2023/08/25 04:27:37;;;;;;;20.30;18.00;;;;;;;;;;5072686;28;20466;-74
2023/08/25 04:30:05;;;;;;;21.83;19.30;;;;;;;;;;5054376;28;20110;-73
2023/08/25 04:32:34;;;;;;;20.15;18.05;;;;;;;;;;5054531;28;20086;-73
2023/08/25 04:35:03;;;;;;;18.83;16.90;;;;;;;;;;5054347;28;20041;-74
2023/08/25 04:37:33;;;;;;;20.10;17.85;;;;;;;;;;5053713;28;20058;-73
2023/08/25 04:40:02;;;;;;;19.60;17.60;;;;;;;;;;5054703;28;20040;-74
2023/08/25 04:42:30;;;;;;;22.90;17.75;;;;;;;;;;5054561;28;20036;-73
2023/08/25 04:44:57;;;;;;;21.77;17.77;;;;;;;;;;5072298;28;20075;-73
